createdAt,value
2018-07-07T00:01:26.632Z,13.10
2018-07-07T00:03:55.328Z,13.10
2018-07-07T00:06:24.033Z,13.10
2018-07-07T00:08:52.562Z,13.10
2018-07-07T00:11:21.213Z,13.00
2018-07-07T00:13:49.840Z,12.70
2018-07-07T00:16:18.367Z,12.60
2018-07-07T00:18:47.033Z,12.50
2018-07-07T00:21:15.608Z,12.50
2018-07-07T00:26:12.538Z,12.60
2018-07-07T00:28:41.192Z,12.80
2018-07-07T00:31:10.013Z,12.80
2018-07-07T00:33:38.690Z,12.80
2018-07-07T00:36:07.220Z,12.80
2018-07-07T00:38:36.005Z,12.50
2018-07-07T00:41:04.667Z,12.40
2018-07-07T00:43:33.341Z,12.40
2018-07-07T00:46:01.844Z,12.40
2018-07-07T00:48:30.539Z,12.40
2018-07-07T00:50:59.092Z,12.50
2018-07-07T00:53:27.622Z,12.40
2018-07-07T00:55:56.288Z,12.20
2018-07-07T00:58:24.801Z,12.20
2018-07-07T01:00:53.986Z,12.10
2018-07-07T01:03:23.129Z,12.20
2018-07-07T01:05:52.081Z,12.40
2018-07-07T01:08:20.736Z,12.40
2018-07-07T01:10:49.417Z,12.20
2018-07-07T01:13:17.903Z,12.30
2018-07-07T01:15:46.436Z,12.30
2018-07-07T01:18:14.963Z,12.30
2018-07-07T01:23:11.759Z,12.20
2018-07-07T01:25:40.270Z,12.20
2018-07-07T01:28:08.882Z,12.30
2018-07-07T01:33:05.751Z,12.60
2018-07-07T01:35:34.456Z,12.60
2018-07-07T01:38:02.932Z,12.70
2018-07-07T01:40:31.438Z,12.70
2018-07-07T01:43:00.014Z,12.70
2018-07-07T01:45:31.818Z,12.60
2018-07-07T01:48:00.357Z,12.50
2018-07-07T01:50:29.351Z,12.50
2018-07-07T01:52:57.845Z,12.30
2018-07-07T01:55:26.327Z,12.30
2018-07-07T01:57:54.922Z,12.40
2018-07-07T02:00:23.602Z,12.40
2018-07-07T02:02:52.210Z,12.50
2018-07-07T02:05:20.758Z,12.60
2018-07-07T02:07:49.251Z,12.60
2018-07-07T02:10:17.830Z,12.50
2018-07-07T02:12:46.424Z,12.40
2018-07-07T02:15:15.467Z,12.40
2018-07-07T02:17:43.956Z,12.60
2018-07-07T02:20:12.722Z,12.70
2018-07-07T02:22:41.190Z,12.70
2018-07-07T02:25:09.716Z,12.80
2018-07-07T02:27:38.221Z,12.80
2018-07-07T02:30:06.770Z,12.90
2018-07-07T02:32:35.254Z,12.80
2018-07-07T02:35:04.220Z,12.80
2018-07-07T02:37:32.717Z,12.70
2018-07-07T02:40:01.472Z,12.70
2018-07-07T02:42:30.017Z,12.70
2018-07-07T02:44:58.971Z,13.00
2018-07-07T02:47:28.101Z,13.10
2018-07-07T02:49:56.634Z,13.10
2018-07-07T02:54:53.452Z,13.30
2018-07-07T02:57:22.396Z,13.30
2018-07-07T02:59:50.901Z,13.10
2018-07-07T03:02:19.499Z,13.20
2018-07-07T03:04:48.168Z,13.30
2018-07-07T03:07:16.949Z,13.00
2018-07-07T03:09:45.428Z,13.00
2018-07-07T03:12:13.965Z,13.00
2018-07-07T03:14:42.594Z,13.10
2018-07-07T03:17:11.157Z,13.20
2018-07-07T03:19:39.662Z,13.30
2018-07-07T03:22:08.507Z,13.40
2018-07-07T03:24:36.995Z,13.50
2018-07-07T03:27:05.941Z,13.40
2018-07-07T03:29:34.446Z,13.40
2018-07-07T03:32:03.004Z,13.50
2018-07-07T03:34:31.855Z,13.50
2018-07-07T03:37:00.843Z,13.50
2018-07-07T03:39:29.429Z,13.50
2018-07-07T03:41:57.937Z,13.60
2018-07-07T03:44:26.427Z,13.50
2018-07-07T03:46:54.936Z,13.50
2018-07-07T03:49:23.602Z,13.50
2018-07-07T03:51:52.082Z,13.60
2018-07-07T03:54:20.996Z,13.60
2018-07-07T03:56:49.670Z,13.70
2018-07-07T03:59:18.151Z,13.70
2018-07-07T04:01:46.952Z,13.70
2018-07-07T04:04:15.419Z,13.70
2018-07-07T04:06:44.125Z,13.70
2018-07-07T04:09:12.584Z,13.80
2018-07-07T04:11:41.356Z,13.90
2018-07-07T04:14:09.851Z,13.90
2018-07-07T04:16:38.472Z,13.90
2018-07-07T04:19:07.337Z,13.90
2018-07-07T04:21:35.880Z,13.80
2018-07-07T04:24:04.420Z,13.80
2018-07-07T04:26:33.282Z,13.70
2018-07-07T04:29:01.809Z,13.70
2018-07-07T04:31:30.584Z,13.70
2018-07-07T04:33:59.385Z,13.70
2018-07-07T04:36:27.861Z,13.60
2018-07-07T04:38:56.334Z,13.40
2018-07-07T04:41:24.868Z,13.50
2018-07-07T04:43:53.824Z,13.50
2018-07-07T04:46:22.493Z,13.50
2018-07-07T04:48:51.019Z,13.50
2018-07-07T04:51:19.515Z,13.40
2018-07-07T04:53:48.043Z,13.50
2018-07-07T04:56:16.688Z,13.50
2018-07-07T04:58:45.338Z,13.30
2018-07-07T05:01:14.230Z,13.30
2018-07-07T05:03:42.686Z,13.20
2018-07-07T05:08:39.575Z,13.20
2018-07-07T05:11:08.516Z,13.20
2018-07-07T05:13:37.032Z,13.30
2018-07-07T05:16:05.789Z,13.40
2018-07-07T05:18:34.455Z,13.40
2018-07-07T05:21:03.050Z,13.40
2018-07-07T05:23:31.521Z,13.40
2018-07-07T05:26:00.041Z,13.50
2018-07-07T05:28:28.601Z,13.60
2018-07-07T05:30:57.118Z,13.70
2018-07-07T05:33:25.931Z,13.80
2018-07-07T05:35:54.436Z,13.80
2018-07-07T05:38:23.048Z,13.70
2018-07-07T05:43:20.128Z,13.70
2018-07-07T05:45:48.953Z,13.90
2018-07-07T05:48:17.897Z,14.00
2018-07-07T05:50:46.692Z,14.00
2018-07-07T05:53:15.427Z,14.00
2018-07-07T05:55:43.955Z,14.00
2018-07-07T05:58:19.024Z,14.00
2018-07-07T06:00:47.708Z,14.20
2018-07-07T06:03:16.472Z,14.20
2018-07-07T06:05:45.064Z,14.20
2018-07-07T06:08:13.620Z,14.30
2018-07-07T06:10:42.149Z,14.40
2018-07-07T06:13:10.902Z,14.40
2018-07-07T06:15:39.384Z,14.60
2018-07-07T06:18:07.885Z,14.60
2018-07-07T06:20:36.615Z,14.80
2018-07-07T06:23:05.092Z,14.80
2018-07-07T06:25:33.596Z,14.80
2018-07-07T06:28:02.203Z,15.00
2018-07-07T06:30:30.787Z,15.00
2018-07-07T06:32:59.445Z,15.20
2018-07-07T06:35:28.319Z,15.30
2018-07-07T06:37:56.850Z,15.50
2018-07-07T06:40:25.375Z,15.60
2018-07-07T06:42:54.126Z,15.60
2018-07-07T06:45:22.842Z,15.70
2018-07-07T06:47:51.360Z,15.80
2018-07-07T06:50:19.884Z,15.80
2018-07-07T06:52:48.441Z,15.90
2018-07-07T06:55:17.184Z,16.00
2018-07-07T06:57:45.804Z,16.20
2018-07-07T07:00:14.557Z,16.30
2018-07-07T07:02:43.212Z,16.30
2018-07-07T07:05:11.757Z,16.40
2018-07-07T07:07:40.624Z,16.60
2018-07-07T07:10:09.200Z,16.70
2018-07-07T07:12:37.774Z,16.80
2018-07-07T07:15:06.307Z,16.80
2018-07-07T07:17:34.927Z,17.00
2018-07-07T07:20:03.538Z,17.20
2018-07-07T07:22:32.586Z,17.30
2018-07-07T07:25:04.747Z,17.40
2018-07-07T07:27:33.639Z,17.50
2018-07-07T07:30:02.209Z,17.50
2018-07-07T07:32:31.291Z,17.40
2018-07-07T07:34:59.983Z,17.40
2018-07-07T07:39:56.662Z,17.70
2018-07-07T07:42:25.234Z,17.70
2018-07-07T07:44:53.737Z,17.80
2018-07-07T07:47:22.309Z,17.80
2018-07-07T07:49:50.815Z,17.90
2018-07-07T07:52:19.486Z,18.00
2018-07-07T07:54:48.003Z,18.10
2018-07-07T07:57:16.746Z,18.30
2018-07-07T07:59:45.520Z,18.30
2018-07-07T08:02:14.132Z,18.20
2018-07-07T08:04:43.087Z,18.40
2018-07-07T08:07:11.908Z,18.30
2018-07-07T08:09:40.433Z,18.50
2018-07-07T08:12:08.982Z,18.70
2018-07-07T08:14:37.489Z,18.80
2018-07-07T08:17:06.266Z,18.80
2018-07-07T08:19:35.767Z,18.90
2018-07-07T08:22:04.498Z,19.00
2018-07-07T08:24:33.147Z,19.10
2018-07-07T08:27:01.815Z,19.30
2018-07-07T08:29:30.619Z,19.60
2018-07-07T08:31:59.549Z,19.80
2018-07-07T08:34:28.504Z,20.10
2018-07-07T08:36:57.033Z,20.50
2018-07-07T08:39:26.023Z,20.70
2018-07-07T08:41:54.782Z,20.50
2018-07-07T08:44:23.623Z,20.70
2018-07-07T08:46:52.226Z,21.00
2018-07-07T08:49:21.037Z,21.10
2018-07-07T08:51:49.894Z,21.10
2018-07-07T08:54:18.550Z,21.20
2018-07-07T08:56:47.236Z,21.20
2018-07-07T08:59:16.054Z,21.30
2018-07-07T09:01:44.831Z,21.10
2018-07-07T09:04:13.503Z,21.20
2018-07-07T09:06:42.061Z,21.10
2018-07-07T09:09:10.982Z,21.00
2018-07-07T09:11:39.872Z,20.90
2018-07-07T09:14:08.439Z,20.70
2018-07-07T09:16:37.104Z,20.80
2018-07-07T09:19:05.839Z,20.80
2018-07-07T09:21:34.777Z,20.90
2018-07-07T09:24:03.405Z,21.30
2018-07-07T09:26:31.916Z,21.30
2018-07-07T09:29:00.535Z,21.30
2018-07-07T09:31:29.318Z,21.20
2018-07-07T09:33:57.883Z,21.30
2018-07-07T09:36:26.412Z,21.30
2018-07-07T09:38:55.253Z,21.50
2018-07-07T09:41:23.993Z,21.50
2018-07-07T09:43:53.279Z,21.50
2018-07-07T09:46:21.855Z,21.60
2018-07-07T09:48:50.781Z,21.90
2018-07-07T09:51:19.310Z,22.00
2018-07-07T09:53:48.264Z,21.90
2018-07-07T09:56:17.268Z,22.10
2018-07-07T09:58:46.155Z,22.40
2018-07-07T10:01:14.910Z,22.80
2018-07-07T10:03:43.477Z,23.00
2018-07-07T10:06:12.074Z,23.30
2018-07-07T10:08:40.699Z,23.40
2018-07-07T10:11:09.531Z,23.60
2018-07-07T10:13:38.070Z,23.80
2018-07-07T10:16:06.567Z,24.30
2018-07-07T10:18:35.486Z,24.40
2018-07-07T10:21:04.166Z,24.70
2018-07-07T10:26:01.257Z,24.60
2018-07-07T10:28:30.071Z,25.30
2018-07-07T10:30:58.793Z,26.00
2018-07-07T10:33:27.482Z,26.10
2018-07-07T10:35:56.121Z,26.90
2018-07-07T10:38:24.823Z,27.30
2018-07-07T10:40:53.780Z,28.20
2018-07-07T10:43:22.480Z,28.00
2018-07-07T10:45:51.335Z,28.60
2018-07-07T10:48:19.967Z,29.10
2018-07-07T10:50:48.732Z,29.20
2018-07-07T10:53:17.483Z,29.10
2018-07-07T10:55:46.186Z,29.00
2018-07-07T10:58:14.677Z,29.50
2018-07-07T11:00:43.436Z,29.40
2018-07-07T11:03:12.145Z,29.80
2018-07-07T11:05:41.039Z,30.10
2018-07-07T11:08:09.560Z,30.30
2018-07-07T11:10:38.104Z,30.40
2018-07-07T11:13:06.742Z,30.20
2018-07-07T11:15:35.676Z,30.80
2018-07-07T11:18:04.348Z,30.10
2018-07-07T11:20:33.064Z,29.90
2018-07-07T11:23:01.926Z,31.00
2018-07-07T11:25:30.575Z,30.70
2018-07-07T11:27:59.122Z,30.40
2018-07-07T11:30:27.844Z,30.40
2018-07-07T11:32:56.629Z,30.70
2018-07-07T11:35:25.178Z,31.00
2018-07-07T11:37:54.053Z,32.00
2018-07-07T11:40:22.695Z,32.40
2018-07-07T11:42:51.602Z,32.00
2018-07-07T11:45:20.283Z,31.30
2018-07-07T11:47:48.879Z,31.10
2018-07-07T11:50:17.803Z,31.10
2018-07-07T11:52:46.362Z,31.60
2018-07-07T11:55:14.862Z,32.10
2018-07-07T11:57:43.589Z,32.80
2018-07-07T12:00:12.579Z,32.20
2018-07-07T12:02:41.396Z,31.20
2018-07-07T12:05:09.954Z,32.20
2018-07-07T12:07:38.783Z,31.80
2018-07-07T12:10:07.383Z,33.10
2018-07-07T12:12:35.912Z,33.40
2018-07-07T12:15:04.781Z,32.90
2018-07-07T12:17:33.352Z,32.70
2018-07-07T12:20:01.907Z,32.70
2018-07-07T12:22:31.149Z,33.10
2018-07-07T12:24:59.675Z,33.20
2018-07-07T12:27:28.215Z,33.00
2018-07-07T12:29:56.951Z,33.80
2018-07-07T12:32:25.614Z,33.90
2018-07-07T12:34:54.497Z,33.10
2018-07-07T12:37:23.034Z,34.10
2018-07-07T12:39:51.871Z,34.50
2018-07-07T12:42:20.796Z,34.10
2018-07-07T12:44:49.435Z,33.70
2018-07-07T12:47:18.098Z,34.40
2018-07-07T12:49:46.746Z,34.80
2018-07-07T12:52:15.438Z,34.00
2018-07-07T12:54:43.961Z,34.10
2018-07-07T12:57:13.010Z,35.40
2018-07-07T12:59:41.563Z,34.30
2018-07-07T13:04:38.534Z,34.60
2018-07-07T13:07:07.174Z,33.60
2018-07-07T13:09:35.843Z,33.10
2018-07-07T13:12:04.801Z,33.60
2018-07-07T13:14:33.408Z,33.40
2018-07-07T13:17:02.385Z,33.70
2018-07-07T13:19:30.992Z,34.40
2018-07-07T13:21:59.851Z,35.10
2018-07-07T13:24:28.381Z,34.70
2018-07-07T13:26:56.996Z,34.50
2018-07-07T13:29:25.619Z,33.90
2018-07-07T13:31:54.366Z,35.30
2018-07-07T13:34:23.085Z,36.60
2018-07-07T13:36:51.800Z,37.10
2018-07-07T13:39:20.374Z,37.20
2018-07-07T13:41:49.040Z,36.90
2018-07-07T13:44:17.812Z,36.40
2018-07-07T13:46:46.428Z,36.90
2018-07-07T13:49:15.353Z,36.70
2018-07-07T13:51:43.977Z,36.70
2018-07-07T13:54:12.842Z,36.30
2018-07-07T13:56:41.389Z,36.10
2018-07-07T13:59:10.118Z,36.40
2018-07-07T14:01:38.856Z,35.40
2018-07-07T14:04:07.531Z,36.50
2018-07-07T14:06:36.064Z,37.00
2018-07-07T14:09:05.255Z,36.90
2018-07-07T14:11:33.758Z,36.10
2018-07-07T14:14:02.667Z,37.10
2018-07-07T14:16:31.690Z,37.00
2018-07-07T14:19:00.511Z,37.60
2018-07-07T14:21:29.377Z,38.20
2018-07-07T14:23:57.946Z,37.50
2018-07-07T14:26:26.944Z,37.00
2018-07-07T14:28:55.491Z,37.00
2018-07-07T14:31:24.245Z,36.60
2018-07-07T14:33:53.521Z,37.10
2018-07-07T14:36:22.392Z,36.90
2018-07-07T14:38:51.011Z,36.70
2018-07-07T14:41:20.867Z,37.10
2018-07-07T14:44:02.096Z,37.90
2018-07-07T14:46:31.346Z,37.30
2018-07-07T14:49:00.188Z,36.90
2018-07-07T14:51:28.826Z,37.00
2018-07-07T14:53:57.539Z,37.10
2018-07-07T14:56:27.310Z,37.80
2018-07-07T14:58:55.879Z,36.00
2018-07-07T15:01:24.713Z,36.40
2018-07-07T15:03:53.262Z,36.50
2018-07-07T15:06:22.137Z,37.40
2018-07-07T15:08:51.076Z,37.50
2018-07-07T15:11:19.727Z,38.60
2018-07-07T15:13:48.648Z,38.60
2018-07-07T15:16:17.166Z,37.00
2018-07-07T15:18:45.866Z,35.90
2018-07-07T15:21:14.526Z,37.00
2018-07-07T15:23:43.085Z,36.50
2018-07-07T15:26:11.689Z,36.50
2018-07-07T15:28:40.277Z,36.50
2018-07-07T15:31:08.946Z,36.20
2018-07-07T15:33:37.760Z,35.70
2018-07-07T15:36:06.472Z,35.60
2018-07-07T15:38:35.216Z,34.70
2018-07-07T15:41:03.950Z,35.00
2018-07-07T15:43:32.920Z,34.70
2018-07-07T15:46:01.673Z,36.10
2018-07-07T15:48:30.367Z,35.60
2018-07-07T15:50:59.445Z,35.30
2018-07-07T15:53:28.325Z,35.40
2018-07-07T15:55:56.883Z,36.40
2018-07-07T15:58:25.573Z,35.90
2018-07-07T16:00:54.460Z,35.60
2018-07-07T16:03:23.155Z,34.90
2018-07-07T16:05:51.876Z,34.80
2018-07-07T16:08:20.573Z,34.40
2018-07-07T16:10:49.344Z,33.70
2018-07-07T16:13:18.192Z,34.80
2018-07-07T16:15:46.935Z,32.40
2018-07-07T16:18:15.780Z,32.30
2018-07-07T16:20:44.434Z,30.50
2018-07-07T16:23:13.035Z,29.60
2018-07-07T16:28:10.348Z,28.70
2018-07-07T16:30:39.291Z,28.60
2018-07-07T16:33:07.819Z,28.20
2018-07-07T16:35:36.502Z,28.10
2018-07-07T16:38:05.360Z,27.80
2018-07-07T16:40:34.154Z,27.50
2018-07-07T16:43:02.986Z,27.30
2018-07-07T16:45:31.763Z,27.40
2018-07-07T16:48:00.345Z,27.70
2018-07-07T16:50:29.396Z,28.30
2018-07-07T16:52:58.517Z,28.40
2018-07-07T16:57:55.396Z,28.10
2018-07-07T17:00:24.334Z,28.20
2018-07-07T17:02:53.187Z,28.30
2018-07-07T17:05:21.971Z,27.40
2018-07-07T17:07:50.694Z,27.40
2018-07-07T17:10:20.126Z,26.70
2018-07-07T17:12:48.949Z,26.40
2018-07-07T17:15:17.676Z,26.30
2018-07-07T17:17:46.527Z,26.10
2018-07-07T17:20:15.087Z,26.20
2018-07-07T17:22:44.317Z,25.90
2018-07-07T17:25:13.221Z,26.10
2018-07-07T17:27:42.207Z,25.90
2018-07-07T17:30:10.905Z,25.50
2018-07-07T17:32:39.914Z,25.30
2018-07-07T17:35:08.489Z,25.30
2018-07-07T17:37:37.775Z,25.10
2018-07-07T17:40:06.676Z,24.90
2018-07-07T17:42:35.860Z,24.70
2018-07-07T17:45:04.685Z,24.50
2018-07-07T17:47:33.352Z,24.40
2018-07-07T17:50:03.242Z,24.40
2018-07-07T17:52:33.509Z,24.40
2018-07-07T17:55:03.264Z,24.30
2018-07-07T17:57:32.273Z,24.40
2018-07-07T18:00:01.264Z,24.50
2018-07-07T18:02:30.113Z,24.40
2018-07-07T18:04:58.897Z,24.40
2018-07-07T18:07:27.694Z,24.40
2018-07-07T18:09:56.295Z,24.30
2018-07-07T18:12:24.981Z,24.30
2018-07-07T18:14:53.621Z,24.30
2018-07-07T18:17:22.337Z,24.10
2018-07-07T18:19:50.870Z,24.20
2018-07-07T18:22:19.539Z,23.90
2018-07-07T18:24:48.184Z,23.70
2018-07-07T18:27:16.988Z,23.70
2018-07-07T18:29:45.993Z,23.60
2018-07-07T18:32:14.646Z,23.50
2018-07-07T18:34:43.145Z,23.30
2018-07-07T18:37:11.948Z,23.10
2018-07-07T18:39:40.647Z,23.10
2018-07-07T18:42:09.407Z,23.10
2018-07-07T18:44:42.874Z,23.10
2018-07-07T18:47:11.523Z,23.00
2018-07-07T18:49:40.555Z,22.80
2018-07-07T18:52:09.168Z,22.70
2018-07-07T18:54:38.198Z,22.70
2018-07-07T18:57:06.949Z,22.40
2018-07-07T18:59:35.719Z,22.50
2018-07-07T19:02:04.397Z,22.40
2018-07-07T19:04:32.948Z,22.30
2018-07-07T19:07:01.652Z,22.30
2018-07-07T19:09:30.688Z,22.20
2018-07-07T19:11:59.281Z,22.10
2018-07-07T19:14:27.918Z,22.00
2018-07-07T19:16:56.465Z,22.00
2018-07-07T19:19:25.099Z,21.90
2018-07-07T19:21:59.172Z,21.70
2018-07-07T19:24:33.036Z,21.40
2018-07-07T19:27:05.191Z,21.40
2018-07-07T19:29:33.683Z,21.40
2018-07-07T19:32:07.730Z,21.40
2018-07-07T19:34:41.618Z,21.20
2018-07-07T19:37:15.933Z,21.10
2018-07-07T19:39:45.817Z,21.10
2018-07-07T19:42:14.591Z,21.00
2018-07-07T19:44:43.221Z,21.00
2018-07-07T19:47:12.407Z,20.90
2018-07-07T19:49:41.345Z,20.80
2018-07-07T19:52:10.591Z,20.80
2018-07-07T19:54:39.892Z,20.70
2018-07-07T19:57:08.665Z,20.60
2018-07-07T19:59:37.556Z,20.50
2018-07-07T20:02:06.305Z,20.40
2018-07-07T20:04:35.112Z,20.30
2018-07-07T20:07:04.060Z,20.20
2018-07-07T20:09:32.925Z,20.20
2018-07-07T20:12:01.761Z,20.00
2018-07-07T20:14:30.505Z,19.80
2018-07-07T20:17:07.324Z,19.70
2018-07-07T20:20:44.334Z,19.50
2018-07-07T20:25:47.309Z,19.00
2018-07-07T20:28:21.394Z,18.80
2018-07-07T20:30:50.358Z,18.70
2018-07-07T20:33:19.386Z,18.60
2018-07-07T20:35:47.879Z,18.40
2018-07-07T20:38:16.898Z,18.50
2018-07-07T20:40:45.701Z,18.50
2018-07-07T20:43:14.404Z,18.40
2018-07-07T20:45:43.141Z,18.20
2018-07-07T20:48:11.960Z,18.20
2018-07-07T20:53:08.821Z,17.90
2018-07-07T20:55:37.345Z,17.80
2018-07-07T20:58:06.496Z,17.70
2018-07-07T21:00:35.377Z,17.80
2018-07-07T21:03:04.172Z,17.70
2018-07-07T21:05:32.817Z,17.60
2018-07-07T21:08:01.517Z,17.40
2018-07-07T21:10:30.252Z,17.30
2018-07-07T21:12:58.816Z,17.30
2018-07-07T21:17:55.993Z,17.00
2018-07-07T21:20:24.544Z,17.00
2018-07-07T21:22:53.133Z,16.90
2018-07-07T21:25:21.940Z,16.80
2018-07-07T21:27:50.617Z,16.90
2018-07-07T21:30:19.444Z,16.90
2018-07-07T21:32:48.036Z,16.90
2018-07-07T21:35:16.751Z,16.90
2018-07-07T21:37:45.693Z,16.90
2018-07-07T21:40:14.559Z,16.80
2018-07-07T21:42:43.350Z,16.70
2018-07-07T21:45:12.198Z,16.70
2018-07-07T21:47:40.851Z,16.60
2018-07-07T21:50:09.617Z,16.70
2018-07-07T21:52:38.388Z,16.70
2018-07-07T21:55:07.033Z,16.60
2018-07-07T21:57:40.812Z,16.60
2018-07-07T22:00:09.527Z,16.60
2018-07-07T22:02:43.953Z,16.50
2018-07-07T22:05:18.058Z,16.40
2018-07-07T22:07:46.713Z,16.60
2018-07-07T22:10:15.258Z,16.60
2018-07-07T22:12:43.936Z,16.70
2018-07-07T22:15:12.560Z,16.60
2018-07-07T22:17:41.449Z,16.60
2018-07-07T22:20:10.240Z,16.70
2018-07-07T22:25:07.841Z,16.80
2018-07-07T22:27:36.559Z,16.70
2018-07-07T22:30:05.356Z,16.70
2018-07-07T22:32:38.263Z,16.70
2018-07-07T22:35:12.395Z,16.70
2018-07-07T22:37:41.065Z,16.70
2018-07-07T22:42:38.315Z,16.60
2018-07-07T22:45:06.958Z,16.60
2018-07-07T22:47:35.549Z,16.60
2018-07-07T22:50:04.092Z,16.50
2018-07-07T22:52:32.768Z,16.50
2018-07-07T22:55:01.320Z,16.40
2018-07-07T22:57:30.070Z,16.40
2018-07-07T22:59:58.751Z,16.30
2018-07-07T23:02:27.353Z,16.30
2018-07-07T23:04:55.864Z,16.20
2018-07-07T23:07:24.407Z,16.20
2018-07-07T23:09:53.375Z,16.00
2018-07-07T23:12:22.096Z,15.80
2018-07-07T23:14:50.589Z,15.80
2018-07-07T23:17:19.150Z,15.60
2018-07-07T23:19:48.161Z,15.50
2018-07-07T23:22:26.394Z,15.50
2018-07-07T23:27:23.439Z,15.30
2018-07-07T23:29:52.112Z,15.20
2018-07-07T23:32:20.643Z,15.20
2018-07-07T23:34:49.559Z,15.00
2018-07-07T23:37:18.072Z,14.90
2018-07-07T23:39:46.760Z,14.70
2018-07-07T23:42:15.489Z,14.70
2018-07-07T23:44:44.011Z,14.70
2018-07-07T23:47:12.569Z,14.60
2018-07-07T23:49:41.509Z,14.60
2018-07-07T23:52:10.085Z,14.40
2018-07-07T23:54:38.593Z,14.30
2018-07-07T23:57:07.196Z,14.20
2018-07-07T23:59:36.047Z,14.10
